Fairground, Vermont
Current Conditions -  °F | °C
As of 7:15 PM on Wednesday 28 Jan 2015 (Local Time) from KFSO Reporting Station
Clear Clear  
Wind Chill:   Ceiling: Unl
Heat Index:   Visibility: 10mi
Dew Point: -4°   Wind: 3mph
Humidity: 64%   Direction: 120°ESE
Pressure: 30.27"   Gusts: NA
Location:  44.8776°N, 72.9201°W
Report Text: KFSO 290015Z AUTO 12003KT 10SM CLR M15/M20 A3027 RMK AO2 T11461201
Loading
Personal Weather Stations






























Interactive Weather Map New forecast layout! Learn more

10-Day Weather Forecast

Advertisements
Track Severe Weather on mobile